createdAt,value
2023-04-26T00:02:50.403Z,14.86
2023-04-26T00:07:49.929Z,15.04
2023-04-26T00:12:46.851Z,15.15
2023-04-26T00:17:43.888Z,14.87
2023-04-26T00:22:40.825Z,15.09
2023-04-26T00:27:38.412Z,14.92
2023-04-26T00:32:35.384Z,14.83
2023-04-26T00:37:32.237Z,14.50
2023-04-26T00:42:29.196Z,14.93
2023-04-26T00:47:28.758Z,14.91
2023-04-26T00:52:26.767Z,14.79
2023-04-26T00:57:23.973Z,14.83
2023-04-26T01:02:21.057Z,14.76
2023-04-26T01:07:19.129Z,14.66
2023-04-26T01:12:16.626Z,14.42
2023-04-26T01:17:13.489Z,14.70
2023-04-26T01:22:10.621Z,14.58
2023-04-26T01:27:08.463Z,14.45
2023-04-26T01:32:05.661Z,14.42
2023-04-26T01:37:02.389Z,14.58
2023-04-26T01:41:59.144Z,14.47
2023-04-26T01:46:56.599Z,14.40
2023-04-26T01:51:55.249Z,14.03
2023-04-26T01:56:54.021Z,14.35
2023-04-26T02:01:50.777Z,14.29
2023-04-26T02:06:48.450Z,14.19
2023-04-26T02:11:46.517Z,14.36
2023-04-26T02:16:44.389Z,14.31
2023-04-26T02:21:55.048Z,13.97
2023-04-26T02:26:53.814Z,14.03
2023-04-26T02:31:50.827Z,14.41
2023-04-26T02:36:48.274Z,14.18
2023-04-26T02:41:45.761Z,14.36
2023-04-26T02:46:42.722Z,14.45
2023-04-26T02:51:41.532Z,14.42
2023-04-26T02:56:38.493Z,14.46
2023-04-26T03:01:35.978Z,14.46
2023-04-26T03:06:32.833Z,14.47
2023-04-26T03:11:29.684Z,14.41
2023-04-26T03:16:28.394Z,14.36
2023-04-26T03:21:27.288Z,14.53
2023-04-26T03:26:24.245Z,14.13
2023-04-26T03:31:22.312Z,14.45
2023-04-26T03:36:19.132Z,14.45
2023-04-26T03:41:16.948Z,14.66
2023-04-26T03:46:14.610Z,14.71
2023-04-26T03:51:11.586Z,14.65
2023-04-26T03:56:08.416Z,14.85
2023-04-26T04:01:08.038Z,14.49
2023-04-26T04:06:05.674Z,14.99
2023-04-26T04:11:02.567Z,15.03
2023-04-26T04:16:00.211Z,15.18
2023-04-26T04:20:57.974Z,15.35
2023-04-26T04:25:55.026Z,15.38
2023-04-26T04:30:52.349Z,15.86
2023-04-26T04:35:49.632Z,16.22
2023-04-26T04:40:49.361Z,16.31
2023-04-26T04:45:46.921Z,16.95
2023-04-26T04:50:43.838Z,17.10
2023-04-26T04:55:40.949Z,17.50
2023-04-26T05:00:40.252Z,17.31
2023-04-26T05:05:47.261Z,17.43
2023-04-26T05:10:45.697Z,17.53
2023-04-26T05:15:43.550Z,17.73
2023-04-26T05:20:41.022Z,17.51
2023-04-26T05:25:37.960Z,18.04
2023-04-26T05:31:01.866Z,18.63
2023-04-26T05:36:29.880Z,19.09
2023-04-26T05:41:27.612Z,21.40
2023-04-26T06:01:14.518Z,30.27
2023-04-26T06:06:34.529Z,32.07
2023-04-26T06:11:31.757Z,32.97
2023-04-26T06:16:29.558Z,33.78
2023-04-26T06:21:29.097Z,34.20
2023-04-26T06:26:30.186Z,34.34
2023-04-26T06:31:27.909Z,34.88
2023-04-26T06:36:28.705Z,36.05
2023-04-26T06:41:26.520Z,36.98
2023-04-26T06:46:23.627Z,37.59
2023-04-26T06:51:23.903Z,38.04
2023-04-26T06:56:23.103Z,38.24
2023-04-26T07:01:20.329Z,38.85
2023-04-26T07:06:17.588Z,39.58
2023-04-26T07:11:16.524Z,40.18
2023-04-26T07:16:20.390Z,39.98
2023-04-26T07:21:19.185Z,39.73
2023-04-26T07:26:16.179Z,39.64
2023-04-26T07:31:13.351Z,40.02
2023-04-26T07:36:11.300Z,40.47
2023-04-26T07:41:15.908Z,40.55
2023-04-26T07:46:14.428Z,40.57
2023-04-26T07:51:19.459Z,40.96
2023-04-26T07:56:16.337Z,40.86
2023-04-26T08:01:13.725Z,41.18
2023-04-26T08:06:22.264Z,41.35
2023-04-26T08:11:19.406Z,41.23
2023-04-26T08:16:20.541Z,40.80
2023-04-26T08:21:18.141Z,40.71
2023-04-26T08:26:19.423Z,40.17
2023-04-26T08:31:19.357Z,40.22
2023-04-26T08:36:17.241Z,40.16
2023-04-26T08:41:14.507Z,39.96
2023-04-26T08:46:16.750Z,39.91
2023-04-26T08:51:15.636Z,40.16
2023-04-26T08:56:31.227Z,40.57
2023-04-26T09:01:33.221Z,41.02
2023-04-26T09:06:32.411Z,40.63
2023-04-26T09:11:30.907Z,40.17
2023-04-26T09:16:36.004Z,39.55
2023-04-26T09:21:33.090Z,39.58
2023-04-26T09:26:30.606Z,39.47
2023-04-26T09:31:38.968Z,39.80
2023-04-26T09:36:50.987Z,39.87
2023-04-26T09:41:48.666Z,39.81
2023-04-26T09:46:58.507Z,39.65
2023-04-26T09:52:06.215Z,39.66
2023-04-26T09:57:03.867Z,39.06
2023-04-26T10:02:03.227Z,38.29
2023-04-26T10:07:01.772Z,37.01
2023-04-26T10:12:01.112Z,36.82
2023-04-26T10:16:59.286Z,36.55
2023-04-26T10:22:01.307Z,36.64
2023-04-26T10:27:00.936Z,36.09
2023-04-26T10:32:10.337Z,35.51
2023-04-26T10:37:12.783Z,35.23
2023-04-26T10:42:25.628Z,35.33
2023-04-26T10:47:27.541Z,34.87
2023-04-26T10:52:28.299Z,34.26
2023-04-26T10:57:50.062Z,33.64
2023-04-26T11:02:58.145Z,32.76
2023-04-26T11:08:04.945Z,31.56
2023-04-26T11:13:03.134Z,30.84
2023-04-26T11:18:20.243Z,30.05
2023-04-26T11:23:19.495Z,28.98
2023-04-26T11:28:21.960Z,28.85
2023-04-26T11:33:23.122Z,28.42
2023-04-26T11:38:22.914Z,27.69
2023-04-26T11:43:20.309Z,27.64
2023-04-26T11:48:17.850Z,27.22
2023-04-26T11:53:24.288Z,27.44
2023-04-26T11:58:21.997Z,27.32
2023-04-26T12:03:19.052Z,26.72
2023-04-26T12:08:29.515Z,26.84
2023-04-26T12:13:29.185Z,26.18
2023-04-26T12:18:30.681Z,27.05
2023-04-26T12:23:36.071Z,27.04
2023-04-26T12:28:33.224Z,26.85
2023-04-26T12:33:30.506Z,27.03
2023-04-26T12:38:28.114Z,26.96
2023-04-26T12:43:25.785Z,26.65
2023-04-26T13:09:20.062Z,25.90
2023-04-26T13:14:16.935Z,25.92
2023-04-26T13:19:13.887Z,25.60
2023-04-26T13:24:11.108Z,25.49
2023-04-26T13:29:08.902Z,25.72
2023-04-26T13:34:06.401Z,25.85
2023-04-26T13:39:04.708Z,25.58
2023-04-26T13:44:01.725Z,26.26
2023-04-26T13:48:59.596Z,26.20
2023-04-26T13:53:56.919Z,25.95
2023-04-26T13:58:55.684Z,26.14
2023-04-26T14:03:56.024Z,26.25
2023-04-26T14:08:54.463Z,26.01
2023-04-26T14:13:55.333Z,26.17
2023-04-26T14:18:52.651Z,25.66
2023-04-26T14:23:50.559Z,25.85
2023-04-26T14:28:48.490Z,25.81
2023-04-26T14:33:45.591Z,25.88
2023-04-26T14:38:42.893Z,25.62
2023-04-26T14:43:41.114Z,25.11
2023-04-26T14:48:38.936Z,25.08
2023-04-26T14:53:36.052Z,24.90
2023-04-26T14:58:33.114Z,24.62
2023-04-26T15:03:32.157Z,23.42
2023-04-26T15:08:29.968Z,22.35
2023-04-26T15:13:26.801Z,21.04
2023-04-26T15:18:28.058Z,20.00
2023-04-26T15:23:25.327Z,19.20
2023-04-26T15:28:22.923Z,18.42
2023-04-26T15:33:22.900Z,17.52
2023-04-26T15:38:20.149Z,16.49
2023-04-26T15:43:17.694Z,15.49
2023-04-26T15:48:16.950Z,15.34
2023-04-26T15:53:16.595Z,14.77
2023-04-26T15:58:13.971Z,14.51
2023-04-26T16:03:11.384Z,14.83
2023-04-26T16:08:11.218Z,14.76
2023-04-26T16:13:08.185Z,14.53
2023-04-26T16:18:05.304Z,14.79
2023-04-26T16:23:02.585Z,14.57
2023-04-26T16:28:00.466Z,14.58
2023-04-26T16:32:57.474Z,14.84
2023-04-26T16:37:54.452Z,14.93
2023-04-26T16:42:51.529Z,14.82
2023-04-26T16:47:49.543Z,15.39
2023-04-26T16:52:46.332Z,15.34
2023-04-26T16:57:43.346Z,15.35
2023-04-26T17:02:41.414Z,15.54
2023-04-26T17:07:39.018Z,15.55
2023-04-26T17:12:36.106Z,15.34
2023-04-26T17:17:36.099Z,15.10
2023-04-26T17:22:32.904Z,15.37
2023-04-26T17:27:31.131Z,14.73
2023-04-26T17:32:28.389Z,14.88
2023-04-26T17:37:26.057Z,15.14
2023-04-26T17:42:22.993Z,14.91
2023-04-26T17:47:21.680Z,14.19
2023-04-26T17:52:18.615Z,14.56
2023-04-26T17:57:17.290Z,14.34
2023-04-26T18:02:14.222Z,14.28
2023-04-26T18:07:12.618Z,14.02
2023-04-26T18:12:09.578Z,13.92
2023-04-26T18:17:08.228Z,13.96
2023-04-26T18:22:06.601Z,13.77
2023-04-26T18:27:05.682Z,13.56
2023-04-26T18:32:03.059Z,13.28
2023-04-26T18:36:59.997Z,13.39
2023-04-26T18:41:57.641Z,13.44
2023-04-26T18:46:56.308Z,13.19
2023-04-26T18:51:53.118Z,13.33
2023-04-26T18:56:50.123Z,13.10
2023-04-26T19:01:48.561Z,13.13
2023-04-26T19:06:47.426Z,12.79
2023-04-26T19:11:44.323Z,12.98
2023-04-26T19:16:41.669Z,12.69
2023-04-26T19:21:39.741Z,12.48
2023-04-26T19:26:38.138Z,12.44
2023-04-26T19:31:35.192Z,12.28
2023-04-26T19:36:34.154Z,12.10
2023-04-26T19:41:30.992Z,11.44
2023-04-26T19:46:28.659Z,11.96
2023-04-26T19:51:25.711Z,11.85
2023-04-26T19:56:23.486Z,11.51
2023-04-26T20:01:20.618Z,11.17
2023-04-26T20:06:18.591Z,11.41
2023-04-26T20:11:16.276Z,11.28
2023-04-26T20:16:13.304Z,10.94
2023-04-26T20:21:10.190Z,11.07
2023-04-26T20:26:07.608Z,11.06
2023-04-26T20:31:04.602Z,10.95
2023-04-26T20:36:01.418Z,10.88
2023-04-26T20:40:59.156Z,10.95
2023-04-26T20:45:56.904Z,10.94
2023-04-26T20:50:54.265Z,10.57
2023-04-26T20:55:52.305Z,10.88
2023-04-26T21:00:49.884Z,10.64
2023-04-26T21:05:47.602Z,10.76
2023-04-26T21:10:44.615Z,10.40
2023-04-26T21:15:41.509Z,10.86
2023-04-26T21:20:38.494Z,10.77
2023-04-26T21:25:36.175Z,10.84
2023-04-26T21:30:33.072Z,10.45
2023-04-26T21:35:30.087Z,10.80
2023-04-26T21:40:26.999Z,10.80
2023-04-26T21:45:24.547Z,10.62
2023-04-26T21:50:21.598Z,10.50
2023-04-26T21:55:18.659Z,10.75
2023-04-26T22:00:16.665Z,10.65
2023-04-26T22:05:14.136Z,10.41
2023-04-26T22:10:11.006Z,10.26
2023-04-26T22:15:08.788Z,10.42
2023-04-26T22:20:06.995Z,10.28
2023-04-26T22:25:05.554Z,10.12
2023-04-26T22:30:12.381Z,9.98
2023-04-26T22:35:17.655Z,9.88
2023-04-26T22:40:15.633Z,10.03
2023-04-26T22:45:13.603Z,10.04
2023-04-26T22:50:11.725Z,10.06
2023-04-26T22:55:09.701Z,9.96
2023-04-26T23:00:09.355Z,9.84
2023-04-26T23:05:09.223Z,9.98
2023-04-26T23:10:07.014Z,9.87
2023-04-26T23:15:04.673Z,9.70
2023-04-26T23:20:10.994Z,9.99
2023-04-26T23:25:09.432Z,9.92
2023-04-26T23:30:07.511Z,9.87
2023-04-26T23:35:05.979Z,10.10
2023-04-26T23:40:05.104Z,10.04
2023-04-26T23:45:01.943Z,9.79
2023-04-26T23:49:58.842Z,10.06
2023-04-26T23:54:56.308Z,9.88
2023-04-26T23:59:54.034Z,9.94
